sensor_id;sensor_type;location;lat;lon;timestamp;P1;durP1;ratioP1;P2;durP2;ratioP2
19861;SDS011;10093;48.148;8.542;2022-08-03T00:01:52;4.85;;;2.83;;
19861;SDS011;10093;48.148;8.542;2022-08-03T00:04:18;3.88;;;2.30;;
19861;SDS011;10093;48.148;8.542;2022-08-03T00:06:43;2.50;;;2.30;;
19861;SDS011;10093;48.148;8.542;2022-08-03T00:09:09;2.38;;;2.17;;
19861;SDS011;10093;48.148;8.542;2022-08-03T00:11:35;2.40;;;2.30;;
19861;SDS011;10093;48.148;8.542;2022-08-03T00:14:01;2.30;;;2.20;;
19861;SDS011;10093;48.148;8.542;2022-08-03T00:16:28;2.83;;;2.63;;
19861;SDS011;10093;48.148;8.542;2022-08-03T00:18:54;2.67;;;2.47;;
19861;SDS011;10093;48.148;8.542;2022-08-03T00:21:19;3.03;;;2.55;;
19861;SDS011;10093;48.148;8.542;2022-08-03T00:23:45;2.53;;;2.33;;
19861;SDS011;10093;48.148;8.542;2022-08-03T00:26:12;2.40;;;2.30;;
19861;SDS011;10093;48.148;8.542;2022-08-03T00:28:37;4.60;;;2.78;;
19861;SDS011;10093;48.148;8.542;2022-08-03T00:31:03;3.67;;;2.50;;
19861;SDS011;10093;48.148;8.542;2022-08-03T00:33:28;3.05;;;2.50;;
19861;SDS011;10093;48.148;8.542;2022-08-03T00:35:54;3.25;;;2.50;;
19861;SDS011;10093;48.148;8.542;2022-08-03T00:38:19;2.63;;;2.42;;
19861;SDS011;10093;48.148;8.542;2022-08-03T00:40:45;2.60;;;2.35;;
19861;SDS011;10093;48.148;8.542;2022-08-03T00:43:11;3.05;;;2.72;;
19861;SDS011;10093;48.148;8.542;2022-08-03T00:45:38;2.50;;;2.40;;
19861;SDS011;10093;48.148;8.542;2022-08-03T00:48:05;3.55;;;2.70;;
19861;SDS011;10093;48.148;8.542;2022-08-03T00:50:35;2.80;;;2.60;;
19861;SDS011;10093;48.148;8.542;2022-08-03T00:53:06;6.32;;;2.58;;
19861;SDS011;10093;48.148;8.542;2022-08-03T00:55:34;2.95;;;2.67;;
19861;SDS011;10093;48.148;8.542;2022-08-03T00:58:01;5.10;;;2.58;;
19861;SDS011;10093;48.148;8.542;2022-08-03T01:00:31;2.78;;;2.22;;
19861;SDS011;10093;48.148;8.542;2022-08-03T01:03:00;3.35;;;2.70;;
19861;SDS011;10093;48.148;8.542;2022-08-03T01:05:26;2.97;;;2.78;;
19861;SDS011;10093;48.148;8.542;2022-08-03T01:11:34;2.80;;;2.60;;
19861;SDS011;10093;48.148;8.542;2022-08-03T01:14:20;3.13;;;2.83;;
19861;SDS011;10093;48.148;8.542;2022-08-03T01:16:54;7.78;;;3.00;;
19861;SDS011;10093;48.148;8.542;2022-08-03T01:29:58;4.45;;;2.95;;
19861;SDS011;10093;48.148;8.542;2022-08-03T01:32:32;3.92;;;3.25;;
19861;SDS011;10093;48.148;8.542;2022-08-03T01:35:08;3.28;;;2.90;;
19861;SDS011;10093;48.148;8.542;2022-08-03T01:37:41;3.42;;;3.08;;
19861;SDS011;10093;48.148;8.542;2022-08-03T01:40:17;2.95;;;2.70;;
19861;SDS011;10093;48.148;8.542;2022-08-03T01:42:45;3.10;;;2.80;;
19861;SDS011;10093;48.148;8.542;2022-08-03T01:45:13;2.80;;;2.60;;
19861;SDS011;10093;48.148;8.542;2022-08-03T01:47:42;3.42;;;3.00;;
19861;SDS011;10093;48.148;8.542;2022-08-03T01:50:09;3.00;;;2.80;;
19861;SDS011;10093;48.148;8.542;2022-08-03T01:52:38;5.15;;;3.05;;
19861;SDS011;10093;48.148;8.542;2022-08-03T01:55:06;3.92;;;2.88;;
19861;SDS011;10093;48.148;8.542;2022-08-03T01:57:34;2.88;;;2.60;;
19861;SDS011;10093;48.148;8.542;2022-08-03T02:00:02;3.15;;;2.50;;
19861;SDS011;10093;48.148;8.542;2022-08-03T02:02:30;4.82;;;3.08;;
19861;SDS011;10093;48.148;8.542;2022-08-03T02:04:57;3.10;;;2.90;;
19861;SDS011;10093;48.148;8.542;2022-08-03T02:07:25;3.67;;;3.10;;
19861;SDS011;10093;48.148;8.542;2022-08-03T02:09:53;4.00;;;3.30;;
19861;SDS011;10093;48.148;8.542;2022-08-03T02:12:21;3.33;;;2.83;;
19861;SDS011;10093;48.148;8.542;2022-08-03T02:14:49;3.47;;;3.15;;
19861;SDS011;10093;48.148;8.542;2022-08-03T02:17:16;4.72;;;3.17;;
19861;SDS011;10093;48.148;8.542;2022-08-03T02:19:43;3.70;;;3.20;;
19861;SDS011;10093;48.148;8.542;2022-08-03T02:22:10;3.60;;;3.30;;
19861;SDS011;10093;48.148;8.542;2022-08-03T02:24:38;3.72;;;3.03;;
19861;SDS011;10093;48.148;8.542;2022-08-03T02:27:04;3.55;;;3.25;;
19861;SDS011;10093;48.148;8.542;2022-08-03T02:29:38;3.50;;;3.05;;
19861;SDS011;10093;48.148;8.542;2022-08-03T02:32:11;4.47;;;3.47;;
19861;SDS011;10093;48.148;8.542;2022-08-03T02:34:41;3.58;;;2.88;;
19861;SDS011;10093;48.148;8.542;2022-08-03T02:37:11;4.35;;;3.50;;
19861;SDS011;10093;48.148;8.542;2022-08-03T02:39:38;3.80;;;3.00;;
19861;SDS011;10093;48.148;8.542;2022-08-03T02:42:06;3.30;;;3.08;;
19861;SDS011;10093;48.148;8.542;2022-08-03T02:44:34;3.88;;;3.58;;
19861;SDS011;10093;48.148;8.542;2022-08-03T02:47:02;3.70;;;3.40;;
19861;SDS011;10093;48.148;8.542;2022-08-03T02:49:32;3.53;;;3.22;;
19861;SDS011;10093;48.148;8.542;2022-08-03T02:51:59;3.33;;;3.08;;
19861;SDS011;10093;48.148;8.542;2022-08-03T02:54:26;4.35;;;3.90;;
19861;SDS011;10093;48.148;8.542;2022-08-03T02:56:53;4.57;;;4.18;;
19861;SDS011;10093;48.148;8.542;2022-08-03T02:59:20;3.90;;;3.53;;
19861;SDS011;10093;48.148;8.542;2022-08-03T03:01:47;5.15;;;3.90;;
19861;SDS011;10093;48.148;8.542;2022-08-03T03:04:13;4.00;;;3.65;;
19861;SDS011;10093;48.148;8.542;2022-08-03T03:06:40;4.15;;;3.75;;
19861;SDS011;10093;48.148;8.542;2022-08-03T03:09:06;5.63;;;4.57;;
19861;SDS011;10093;48.148;8.542;2022-08-03T03:11:33;4.70;;;4.00;;
19861;SDS011;10093;48.148;8.542;2022-08-03T03:14:02;4.68;;;4.28;;
19861;SDS011;10093;48.148;8.542;2022-08-03T03:16:28;5.50;;;4.38;;
19861;SDS011;10093;48.148;8.542;2022-08-03T03:18:54;5.35;;;3.85;;
19861;SDS011;10093;48.148;8.542;2022-08-03T03:21:21;4.10;;;3.70;;
19861;SDS011;10093;48.148;8.542;2022-08-03T03:23:47;3.80;;;3.45;;
19861;SDS011;10093;48.148;8.542;2022-08-03T03:26:14;4.93;;;4.05;;
19861;SDS011;10093;48.148;8.542;2022-08-03T03:28:40;4.00;;;3.67;;
19861;SDS011;10093;48.148;8.542;2022-08-03T03:31:06;4.22;;;3.85;;
19861;SDS011;10093;48.148;8.542;2022-08-03T03:33:32;4.20;;;3.90;;
19861;SDS011;10093;48.148;8.542;2022-08-03T03:35:58;4.10;;;3.80;;
19861;SDS011;10093;48.148;8.542;2022-08-03T03:38:24;4.15;;;3.60;;
19861;SDS011;10093;48.148;8.542;2022-08-03T03:40:50;5.75;;;4.00;;
19861;SDS011;10093;48.148;8.542;2022-08-03T03:43:17;4.43;;;4.00;;
19861;SDS011;10093;48.148;8.542;2022-08-03T03:45:43;4.65;;;4.25;;
19861;SDS011;10093;48.148;8.542;2022-08-03T03:48:10;5.18;;;4.68;;
19861;SDS011;10093;48.148;8.542;2022-08-03T03:50:36;5.45;;;4.68;;
19861;SDS011;10093;48.148;8.542;2022-08-03T03:53:07;4.78;;;4.20;;
19861;SDS011;10093;48.148;8.542;2022-08-03T03:55:34;4.43;;;4.03;;
19861;SDS011;10093;48.148;8.542;2022-08-03T03:58:01;4.65;;;4.25;;
19861;SDS011;10093;48.148;8.542;2022-08-03T04:00:28;5.18;;;4.40;;
19861;SDS011;10093;48.148;8.542;2022-08-03T04:02:54;5.82;;;4.20;;
19861;SDS011;10093;48.148;8.542;2022-08-03T04:05:20;4.40;;;4.00;;
19861;SDS011;10093;48.148;8.542;2022-08-03T04:08:08;4.13;;;3.80;;
19861;SDS011;10093;48.148;8.542;2022-08-03T04:13:49;4.35;;;3.90;;
19861;SDS011;10093;48.148;8.542;2022-08-03T04:16:30;4.40;;;4.05;;
19861;SDS011;10093;48.148;8.542;2022-08-03T04:19:03;4.47;;;4.03;;
19861;SDS011;10093;48.148;8.542;2022-08-03T04:21:32;4.45;;;4.07;;
19861;SDS011;10093;48.148;8.542;2022-08-03T04:24:02;4.72;;;4.30;;
19861;SDS011;10093;48.148;8.542;2022-08-03T04:26:32;5.05;;;3.90;;
19861;SDS011;10093;48.148;8.542;2022-08-03T04:29:03;5.22;;;4.00;;
19861;SDS011;10093;48.148;8.542;2022-08-03T04:31:30;4.10;;;3.80;;
19861;SDS011;10093;48.148;8.542;2022-08-03T04:33:57;4.53;;;3.80;;
19861;SDS011;10093;48.148;8.542;2022-08-03T04:36:25;5.25;;;3.83;;
19861;SDS011;10093;48.148;8.542;2022-08-03T04:38:58;5.13;;;3.63;;
19861;SDS011;10093;48.148;8.542;2022-08-03T04:41:30;3.80;;;3.38;;
19861;SDS011;10093;48.148;8.542;2022-08-03T04:43:59;3.33;;;3.13;;
19861;SDS011;10093;48.148;8.542;2022-08-03T04:46:26;4.45;;;4.05;;
19861;SDS011;10093;48.148;8.542;2022-08-03T04:48:55;5.00;;;3.28;;
19861;SDS011;10093;48.148;8.542;2022-08-03T04:51:22;4.28;;;3.88;;
19861;SDS011;10093;48.148;8.542;2022-08-03T04:53:49;3.67;;;3.30;;
19861;SDS011;10093;48.148;8.542;2022-08-03T04:56:14;3.90;;;3.60;;
19861;SDS011;10093;48.148;8.542;2022-08-03T04:58:40;4.25;;;3.75;;
19861;SDS011;10093;48.148;8.542;2022-08-03T05:01:06;4.18;;;3.78;;
19861;SDS011;10093;48.148;8.542;2022-08-03T05:03:31;3.38;;;3.17;;
19861;SDS011;10093;48.148;8.542;2022-08-03T05:05:57;3.25;;;3.05;;
19861;SDS011;10093;48.148;8.542;2022-08-03T05:08:23;4.10;;;3.17;;
19861;SDS011;10093;48.148;8.542;2022-08-03T05:10:48;3.25;;;3.05;;
19861;SDS011;10093;48.148;8.542;2022-08-03T05:13:14;3.58;;;3.28;;
19861;SDS011;10093;48.148;8.542;2022-08-03T05:15:40;2.50;;;2.40;;
19861;SDS011;10093;48.148;8.542;2022-08-03T05:18:06;2.63;;;2.42;;
19861;SDS011;10093;48.148;8.542;2022-08-03T05:20:32;2.88;;;2.08;;
19861;SDS011;10093;48.148;8.542;2022-08-03T05:22:57;2.28;;;1.70;;
19861;SDS011;10093;48.148;8.542;2022-08-03T05:25:25;1.42;;;1.42;;
19861;SDS011;10093;48.148;8.542;2022-08-03T05:27:52;2.03;;;1.88;;
19861;SDS011;10093;48.148;8.542;2022-08-03T05:30:17;3.38;;;1.60;;
19861;SDS011;10093;48.148;8.542;2022-08-03T05:32:43;1.60;;;1.58;;
19861;SDS011;10093;48.148;8.542;2022-08-03T05:35:09;1.50;;;1.42;;
19861;SDS011;10093;48.148;8.542;2022-08-03T05:37:35;2.88;;;1.73;;
19861;SDS011;10093;48.148;8.542;2022-08-03T05:40:00;2.05;;;1.60;;
19861;SDS011;10093;48.148;8.542;2022-08-03T05:42:26;1.73;;;1.63;;
19861;SDS011;10093;48.148;8.542;2022-08-03T05:44:52;1.80;;;1.50;;
19861;SDS011;10093;48.148;8.542;2022-08-03T05:47:17;3.70;;;1.90;;
19861;SDS011;10093;48.148;8.542;2022-08-03T05:49:43;2.00;;;1.40;;
19861;SDS011;10093;48.148;8.542;2022-08-03T05:52:09;3.53;;;1.73;;
19861;SDS011;10093;48.148;8.542;2022-08-03T05:54:34;3.63;;;1.48;;
19861;SDS011;10093;48.148;8.542;2022-08-03T05:57:00;1.80;;;1.70;;
19861;SDS011;10093;48.148;8.542;2022-08-03T05:59:26;4.35;;;1.25;;
19861;SDS011;10093;48.148;8.542;2022-08-03T06:01:52;2.38;;;1.40;;
19861;SDS011;10093;48.148;8.542;2022-08-03T06:04:17;4.80;;;1.65;;
19861;SDS011;10093;48.148;8.542;2022-08-03T06:06:43;3.63;;;1.42;;
19861;SDS011;10093;48.148;8.542;2022-08-03T06:09:08;4.43;;;1.65;;
19861;SDS011;10093;48.148;8.542;2022-08-03T06:11:38;6.40;;;1.73;;
19861;SDS011;10093;48.148;8.542;2022-08-03T06:14:04;3.17;;;1.48;;
19861;SDS011;10093;48.148;8.542;2022-08-03T06:16:30;1.95;;;1.27;;
19861;SDS011;10093;48.148;8.542;2022-08-03T06:18:56;3.63;;;1.27;;
19861;SDS011;10093;48.148;8.542;2022-08-03T06:21:21;3.40;;;1.75;;
19861;SDS011;10093;48.148;8.542;2022-08-03T06:23:47;3.00;;;1.80;;
19861;SDS011;10093;48.148;8.542;2022-08-03T06:26:12;5.70;;;1.95;;
19861;SDS011;10093;48.148;8.542;2022-08-03T06:28:38;3.17;;;1.30;;
19861;SDS011;10093;48.148;8.542;2022-08-03T06:31:04;7.82;;;1.60;;
19861;SDS011;10093;48.148;8.542;2022-08-03T06:33:30;1.60;;;1.40;;
19861;SDS011;10093;48.148;8.542;2022-08-03T06:35:55;3.63;;;1.45;;
19861;SDS011;10093;48.148;8.542;2022-08-03T06:38:21;2.83;;;1.85;;
19861;SDS011;10093;48.148;8.542;2022-08-03T06:40:47;1.20;;;1.10;;
19861;SDS011;10093;48.148;8.542;2022-08-03T06:43:12;5.18;;;1.33;;
19861;SDS011;10093;48.148;8.542;2022-08-03T06:45:39;3.15;;;1.73;;
19861;SDS011;10093;48.148;8.542;2022-08-03T06:48:06;2.05;;;1.40;;
19861;SDS011;10093;48.148;8.542;2022-08-03T06:50:34;2.47;;;1.35;;
19861;SDS011;10093;48.148;8.542;2022-08-03T06:53:01;1.63;;;1.45;;
19861;SDS011;10093;48.148;8.542;2022-08-03T06:55:28;1.58;;;1.48;;
19861;SDS011;10093;48.148;8.542;2022-08-03T06:57:54;1.83;;;1.65;;
19861;SDS011;10093;48.148;8.542;2022-08-03T07:00:20;5.25;;;1.60;;
19861;SDS011;10093;48.148;8.542;2022-08-03T07:02:46;1.70;;;1.60;;
19861;SDS011;10093;48.148;8.542;2022-08-03T07:05:11;2.72;;;1.60;;
19861;SDS011;10093;48.148;8.542;2022-08-03T07:07:37;3.45;;;1.30;;
19861;SDS011;10093;48.148;8.542;2022-08-03T07:10:04;2.90;;;1.13;;
19861;SDS011;10093;48.148;8.542;2022-08-03T07:12:31;1.45;;;0.93;;
19861;SDS011;10093;48.148;8.542;2022-08-03T07:14:58;1.13;;;1.10;;
19861;SDS011;10093;48.148;8.542;2022-08-03T07:17:25;2.05;;;1.35;;
19861;SDS011;10093;48.148;8.542;2022-08-03T07:19:50;3.03;;;1.30;;
19861;SDS011;10093;48.148;8.542;2022-08-03T07:22:16;7.43;;;1.30;;
19861;SDS011;10093;48.148;8.542;2022-08-03T07:24:42;5.20;;;1.15;;
19861;SDS011;10093;48.148;8.542;2022-08-03T07:27:07;3.65;;;1.10;;
19861;SDS011;10093;48.148;8.542;2022-08-03T07:29:33;2.00;;;1.00;;
19861;SDS011;10093;48.148;8.542;2022-08-03T07:31:59;1.60;;;0.68;;
19861;SDS011;10093;48.148;8.542;2022-08-03T07:34:25;2.67;;;0.82;;
19861;SDS011;10093;48.148;8.542;2022-08-03T07:36:51;3.22;;;1.00;;
19861;SDS011;10093;48.148;8.542;2022-08-03T07:39:16;4.57;;;0.95;;
19861;SDS011;10093;48.148;8.542;2022-08-03T07:41:42;1.98;;;0.90;;
19861;SDS011;10093;48.148;8.542;2022-08-03T07:44:08;7.00;;;1.00;;
19861;SDS011;10093;48.148;8.542;2022-08-03T07:46:33;1.17;;;0.77;;
19861;SDS011;10093;48.148;8.542;2022-08-03T07:48:59;2.20;;;0.90;;
19861;SDS011;10093;48.148;8.542;2022-08-03T07:51:25;2.35;;;1.00;;
19861;SDS011;10093;48.148;8.542;2022-08-03T07:53:51;3.45;;;0.90;;
19861;SDS011;10093;48.148;8.542;2022-08-03T07:56:16;4.50;;;0.90;;
19861;SDS011;10093;48.148;8.542;2022-08-03T07:58:43;3.03;;;0.70;;
19861;SDS011;10093;48.148;8.542;2022-08-03T08:01:09;0.63;;;0.63;;
19861;SDS011;10093;48.148;8.542;2022-08-03T08:03:34;0.90;;;0.70;;
19861;SDS011;10093;48.148;8.542;2022-08-03T08:06:00;0.75;;;0.50;;
19861;SDS011;10093;48.148;8.542;2022-08-03T08:08:26;1.27;;;0.70;;
19861;SDS011;10093;48.148;8.542;2022-08-03T08:10:51;5.13;;;0.70;;
19861;SDS011;10093;48.148;8.542;2022-08-03T08:13:17;2.05;;;0.52;;
19861;SDS011;10093;48.148;8.542;2022-08-03T08:15:42;2.40;;;0.68;;
19861;SDS011;10093;48.148;8.542;2022-08-03T08:18:08;1.63;;;0.60;;
19861;SDS011;10093;48.148;8.542;2022-08-03T08:20:34;1.10;;;0.60;;
19861;SDS011;10093;48.148;8.542;2022-08-03T08:23:04;1.00;;;0.57;;
19861;SDS011;10093;48.148;8.542;2022-08-03T08:25:31;4.15;;;0.70;;
19861;SDS011;10093;48.148;8.542;2022-08-03T08:27:57;0.80;;;0.60;;
19861;SDS011;10093;48.148;8.542;2022-08-03T08:30:26;0.70;;;0.43;;
19861;SDS011;10093;48.148;8.542;2022-08-03T08:32:52;2.65;;;0.50;;
19861;SDS011;10093;48.148;8.542;2022-08-03T08:35:17;1.27;;;0.50;;
19861;SDS011;10093;48.148;8.542;2022-08-03T08:37:43;1.15;;;0.50;;
19861;SDS011;10093;48.148;8.542;2022-08-03T08:40:10;0.40;;;0.40;;
19861;SDS011;10093;48.148;8.542;2022-08-03T08:42:37;2.05;;;0.55;;
19861;SDS011;10093;48.148;8.542;2022-08-03T08:45:08;2.45;;;0.40;;
19861;SDS011;10093;48.148;8.542;2022-08-03T08:47:36;3.38;;;0.50;;
19861;SDS011;10093;48.148;8.542;2022-08-03T08:50:03;3.40;;;0.40;;
19861;SDS011;10093;48.148;8.542;2022-08-03T08:52:32;2.80;;;0.40;;
19861;SDS011;10093;48.148;8.542;2022-08-03T08:54:59;1.13;;;0.30;;
19861;SDS011;10093;48.148;8.542;2022-08-03T08:57:30;2.10;;;0.40;;
19861;SDS011;10093;48.148;8.542;2022-08-03T09:00:00;1.10;;;0.32;;
19861;SDS011;10093;48.148;8.542;2022-08-03T09:02:29;1.52;;;0.50;;
19861;SDS011;10093;48.148;8.542;2022-08-03T09:04:55;0.50;;;0.50;;
19861;SDS011;10093;48.148;8.542;2022-08-03T09:07:22;2.40;;;0.57;;
19861;SDS011;10093;48.148;8.542;2022-08-03T09:09:47;0.40;;;0.40;;
19861;SDS011;10093;48.148;8.542;2022-08-03T09:12:13;1.20;;;0.50;;
19861;SDS011;10093;48.148;8.542;2022-08-03T09:14:39;0.30;;;0.30;;
19861;SDS011;10093;48.148;8.542;2022-08-03T09:17:05;0.63;;;0.47;;
19861;SDS011;10093;48.148;8.542;2022-08-03T09:19:32;1.92;;;0.40;;
19861;SDS011;10093;48.148;8.542;2022-08-03T09:22:12;0.80;;;0.40;;
19861;SDS011;10093;48.148;8.542;2022-08-03T09:24:56;1.45;;;0.50;;
19861;SDS011;10093;48.148;8.542;2022-08-03T09:27:24;0.47;;;0.47;;
19861;SDS011;10093;48.148;8.542;2022-08-03T09:29:51;0.35;;;0.30;;
19861;SDS011;10093;48.148;8.542;2022-08-03T09:32:20;0.65;;;0.40;;
19861;SDS011;10093;48.148;8.542;2022-08-03T09:34:48;0.68;;;0.50;;
19861;SDS011;10093;48.148;8.542;2022-08-03T09:37:17;0.93;;;0.50;;
19861;SDS011;10093;48.148;8.542;2022-08-03T09:39:45;0.60;;;0.50;;
19861;SDS011;10093;48.148;8.542;2022-08-03T09:42:12;0.40;;;0.40;;
19861;SDS011;10093;48.148;8.542;2022-08-03T09:44:43;2.20;;;0.47;;
19861;SDS011;10093;48.148;8.542;2022-08-03T09:47:12;1.27;;;0.20;;
19861;SDS011;10093;48.148;8.542;2022-08-03T09:49:40;2.58;;;0.40;;
19861;SDS011;10093;48.148;8.542;2022-08-03T09:52:13;2.45;;;0.40;;
19861;SDS011;10093;48.148;8.542;2022-08-03T09:54:42;0.82;;;0.40;;
19861;SDS011;10093;48.148;8.542;2022-08-03T09:57:25;3.22;;;0.50;;
19861;SDS011;10093;48.148;8.542;2022-08-03T09:59:52;1.50;;;0.52;;
19861;SDS011;10093;48.148;8.542;2022-08-03T10:02:25;0.47;;;0.40;;
19861;SDS011;10093;48.148;8.542;2022-08-03T10:04:51;0.65;;;0.50;;
19861;SDS011;10093;48.148;8.542;2022-08-03T10:07:19;2.17;;;0.40;;
19861;SDS011;10093;48.148;8.542;2022-08-03T10:09:52;2.80;;;0.40;;
19861;SDS011;10093;48.148;8.542;2022-08-03T10:12:20;0.40;;;0.40;;
19861;SDS011;10093;48.148;8.542;2022-08-03T10:14:46;3.42;;;0.40;;
19861;SDS011;10093;48.148;8.542;2022-08-03T10:17:12;3.30;;;0.40;;
19861;SDS011;10093;48.148;8.542;2022-08-03T10:19:38;0.43;;;0.40;;
19861;SDS011;10093;48.148;8.542;2022-08-03T10:22:11;1.95;;;0.40;;
19861;SDS011;10093;48.148;8.542;2022-08-03T10:24:41;0.73;;;0.40;;
19861;SDS011;10093;48.148;8.542;2022-08-03T10:27:13;0.60;;;0.40;;
19861;SDS011;10093;48.148;8.542;2022-08-03T10:29:41;0.80;;;0.40;;
19861;SDS011;10093;48.148;8.542;2022-08-03T10:32:12;1.75;;;0.40;;
19861;SDS011;10093;48.148;8.542;2022-08-03T10:34:43;1.40;;;0.40;;
19861;SDS011;10093;48.148;8.542;2022-08-03T10:37:10;2.85;;;0.40;;
19861;SDS011;10093;48.148;8.542;2022-08-03T10:39:39;0.50;;;0.30;;
19861;SDS011;10093;48.148;8.542;2022-08-03T10:42:17;0.40;;;0.40;;
19861;SDS011;10093;48.148;8.542;2022-08-03T10:44:47;0.40;;;0.30;;
19861;SDS011;10093;48.148;8.542;2022-08-03T10:47:19;1.80;;;0.50;;
19861;SDS011;10093;48.148;8.542;2022-08-03T10:49:47;0.43;;;0.43;;
19861;SDS011;10093;48.148;8.542;2022-08-03T10:52:13;1.15;;;0.40;;
19861;SDS011;10093;48.148;8.542;2022-08-03T10:54:40;1.27;;;0.60;;
19861;SDS011;10093;48.148;8.542;2022-08-03T10:57:43;1.65;;;0.40;;
19861;SDS011;10093;48.148;8.542;2022-08-03T11:00:18;3.25;;;0.50;;
19861;SDS011;10093;48.148;8.542;2022-08-03T11:03:04;0.57;;;0.40;;
19861;SDS011;10093;48.148;8.542;2022-08-03T11:05:41;0.70;;;0.40;;
19861;SDS011;10093;48.148;8.542;2022-08-03T11:08:16;3.22;;;0.50;;
19861;SDS011;10093;48.148;8.542;2022-08-03T11:10:43;0.45;;;0.45;;
19861;SDS011;10093;48.148;8.542;2022-08-03T11:13:09;2.72;;;0.30;;
19861;SDS011;10093;48.148;8.542;2022-08-03T11:15:37;0.30;;;0.30;;
19861;SDS011;10093;48.148;8.542;2022-08-03T11:18:07;1.80;;;0.38;;
19861;SDS011;10093;48.148;8.542;2022-08-03T11:23:16;0.30;;;0.30;;
19861;SDS011;10093;48.148;8.542;2022-08-03T11:28:46;0.43;;;0.35;;
19861;SDS011;10093;48.148;8.542;2022-08-03T11:34:06;0.57;;;0.40;;
19861;SDS011;10093;48.148;8.542;2022-08-03T11:39:37;0.32;;;0.30;;
19861;SDS011;10093;48.148;8.542;2022-08-03T11:44:57;0.95;;;0.40;;
19861;SDS011;10093;48.148;8.542;2022-08-03T11:47:28;0.40;;;0.40;;
19861;SDS011;10093;48.148;8.542;2022-08-03T11:49:54;0.40;;;0.40;;
19861;SDS011;10093;48.148;8.542;2022-08-03T11:52:24;0.95;;;0.47;;
19861;SDS011;10093;48.148;8.542;2022-08-03T11:54:51;2.90;;;0.45;;
19861;SDS011;10093;48.148;8.542;2022-08-03T11:57:30;1.08;;;0.43;;
19861;SDS011;10093;48.148;8.542;2022-08-03T11:59:58;0.55;;;0.47;;
19861;SDS011;10093;48.148;8.542;2022-08-03T12:02:24;0.90;;;0.50;;
19861;SDS011;10093;48.148;8.542;2022-08-03T12:07:16;0.30;;;0.30;;
19861;SDS011;10093;48.148;8.542;2022-08-03T12:09:42;0.85;;;0.40;;
19861;SDS011;10093;48.148;8.542;2022-08-03T12:12:08;0.63;;;0.30;;
19861;SDS011;10093;48.148;8.542;2022-08-03T12:14:34;0.75;;;0.40;;
19861;SDS011;10093;48.148;8.542;2022-08-03T12:17:00;1.00;;;0.30;;
19861;SDS011;10093;48.148;8.542;2022-08-03T12:19:25;0.40;;;0.40;;
19861;SDS011;10093;48.148;8.542;2022-08-03T12:21:51;0.45;;;0.30;;
19861;SDS011;10093;48.148;8.542;2022-08-03T12:24:17;1.65;;;0.45;;
19861;SDS011;10093;48.148;8.542;2022-08-03T12:26:47;1.38;;;0.40;;
19861;SDS011;10093;48.148;8.542;2022-08-03T12:29:17;2.72;;;0.32;;
19861;SDS011;10093;48.148;8.542;2022-08-03T12:31:43;0.57;;;0.50;;
19861;SDS011;10093;48.148;8.542;2022-08-03T12:34:09;2.97;;;0.68;;
19861;SDS011;10093;48.148;8.542;2022-08-03T12:36:35;4.47;;;0.40;;
19861;SDS011;10093;48.148;8.542;2022-08-03T12:43:59;1.45;;;0.40;;
19861;SDS011;10093;48.148;8.542;2022-08-03T12:46:34;1.85;;;0.40;;
19861;SDS011;10093;48.148;8.542;2022-08-03T12:49:08;1.02;;;0.40;;
19861;SDS011;10093;48.148;8.542;2022-08-03T12:54:06;1.65;;;0.40;;
19861;SDS011;10093;48.148;8.542;2022-08-03T12:56:33;0.75;;;0.40;;
19861;SDS011;10093;48.148;8.542;2022-08-03T12:58:59;0.50;;;0.50;;
19861;SDS011;10093;48.148;8.542;2022-08-03T13:01:45;1.48;;;0.32;;
19861;SDS011;10093;48.148;8.542;2022-08-03T13:04:10;1.63;;;0.40;;
19861;SDS011;10093;48.148;8.542;2022-08-03T13:06:37;0.80;;;0.43;;
19861;SDS011;10093;48.148;8.542;2022-08-03T13:09:03;0.85;;;0.40;;
19861;SDS011;10093;48.148;8.542;2022-08-03T13:11:30;0.45;;;0.40;;
19861;SDS011;10093;48.148;8.542;2022-08-03T13:13:56;1.02;;;0.40;;
19861;SDS011;10093;48.148;8.542;2022-08-03T13:16:22;1.00;;;0.50;;
19861;SDS011;10093;48.148;8.542;2022-08-03T13:18:48;1.65;;;0.50;;
19861;SDS011;10093;48.148;8.542;2022-08-03T13:21:16;2.35;;;0.40;;
19861;SDS011;10093;48.148;8.542;2022-08-03T13:23:43;0.40;;;0.40;;
19861;SDS011;10093;48.148;8.542;2022-08-03T13:26:09;1.55;;;0.50;;
19861;SDS011;10093;48.148;8.542;2022-08-03T13:28:36;1.65;;;0.40;;
19861;SDS011;10093;48.148;8.542;2022-08-03T13:31:02;2.10;;;0.45;;
19861;SDS011;10093;48.148;8.542;2022-08-03T13:33:28;1.77;;;0.40;;
19861;SDS011;10093;48.148;8.542;2022-08-03T13:35:54;1.38;;;0.40;;
19861;SDS011;10093;48.148;8.542;2022-08-03T13:38:20;0.40;;;0.40;;
19861;SDS011;10093;48.148;8.542;2022-08-03T13:40:45;0.65;;;0.40;;
19861;SDS011;10093;48.148;8.542;2022-08-03T13:43:11;4.07;;;0.55;;
19861;SDS011;10093;48.148;8.542;2022-08-03T13:45:37;2.58;;;0.40;;
19861;SDS011;10093;48.148;8.542;2022-08-03T13:48:02;1.85;;;0.30;;
19861;SDS011;10093;48.148;8.542;2022-08-03T13:50:28;0.77;;;0.40;;
19861;SDS011;10093;48.148;8.542;2022-08-03T13:52:55;1.45;;;0.40;;
19861;SDS011;10093;48.148;8.542;2022-08-03T13:55:22;0.68;;;0.40;;
19861;SDS011;10093;48.148;8.542;2022-08-03T13:57:48;2.25;;;0.50;;
19861;SDS011;10093;48.148;8.542;2022-08-03T14:00:14;0.43;;;0.40;;
19861;SDS011;10093;48.148;8.542;2022-08-03T14:02:40;0.55;;;0.40;;
19861;SDS011;10093;48.148;8.542;2022-08-03T14:05:06;1.50;;;0.40;;
19861;SDS011;10093;48.148;8.542;2022-08-03T14:07:32;0.40;;;0.40;;
19861;SDS011;10093;48.148;8.542;2022-08-03T14:09:58;1.00;;;0.40;;
19861;SDS011;10093;48.148;8.542;2022-08-03T14:12:25;3.67;;;0.52;;
19861;SDS011;10093;48.148;8.542;2022-08-03T14:14:51;0.60;;;0.43;;
19861;SDS011;10093;48.148;8.542;2022-08-03T14:17:17;0.63;;;0.32;;
19861;SDS011;10093;48.148;8.542;2022-08-03T14:19:42;0.88;;;0.40;;
19861;SDS011;10093;48.148;8.542;2022-08-03T14:22:08;0.63;;;0.57;;
19861;SDS011;10093;48.148;8.542;2022-08-03T14:24:34;1.92;;;0.38;;
19861;SDS011;10093;48.148;8.542;2022-08-03T14:26:59;0.70;;;0.40;;
19861;SDS011;10093;48.148;8.542;2022-08-03T14:29:25;0.52;;;0.30;;
19861;SDS011;10093;48.148;8.542;2022-08-03T14:31:51;0.95;;;0.45;;
19861;SDS011;10093;48.148;8.542;2022-08-03T14:34:16;1.17;;;0.40;;
19861;SDS011;10093;48.148;8.542;2022-08-03T14:36:42;2.95;;;0.40;;
19861;SDS011;10093;48.148;8.542;2022-08-03T14:39:07;3.05;;;0.40;;
19861;SDS011;10093;48.148;8.542;2022-08-03T14:41:33;3.30;;;0.40;;
19861;SDS011;10093;48.148;8.542;2022-08-03T14:43:59;0.68;;;0.40;;
19861;SDS011;10093;48.148;8.542;2022-08-03T14:46:24;1.67;;;0.60;;
19861;SDS011;10093;48.148;8.542;2022-08-03T14:48:50;0.85;;;0.43;;
19861;SDS011;10093;48.148;8.542;2022-08-03T14:51:16;1.77;;;0.60;;
19861;SDS011;10093;48.148;8.542;2022-08-03T14:53:41;0.50;;;0.50;;
19861;SDS011;10093;48.148;8.542;2022-08-03T14:56:07;1.63;;;0.50;;
19861;SDS011;10093;48.148;8.542;2022-08-03T14:58:32;1.23;;;0.40;;
19861;SDS011;10093;48.148;8.542;2022-08-03T15:00:58;0.90;;;0.40;;
19861;SDS011;10093;48.148;8.542;2022-08-03T15:03:24;0.40;;;0.40;;
19861;SDS011;10093;48.148;8.542;2022-08-03T15:05:53;1.05;;;0.50;;
19861;SDS011;10093;48.148;8.542;2022-08-03T15:08:20;0.45;;;0.40;;
19861;SDS011;10093;48.148;8.542;2022-08-03T15:10:47;0.50;;;0.50;;
19861;SDS011;10093;48.148;8.542;2022-08-03T15:13:13;2.67;;;0.40;;
19861;SDS011;10093;48.148;8.542;2022-08-03T15:15:38;2.25;;;0.50;;
19861;SDS011;10093;48.148;8.542;2022-08-03T15:18:04;0.40;;;0.40;;
19861;SDS011;10093;48.148;8.542;2022-08-03T15:20:30;1.15;;;0.47;;
19861;SDS011;10093;48.148;8.542;2022-08-03T15:22:56;4.25;;;0.60;;
19861;SDS011;10093;48.148;8.542;2022-08-03T15:25:21;0.35;;;0.35;;
19861;SDS011;10093;48.148;8.542;2022-08-03T15:27:47;0.63;;;0.40;;
19861;SDS011;10093;48.148;8.542;2022-08-03T15:30:13;1.73;;;0.50;;
19861;SDS011;10093;48.148;8.542;2022-08-03T15:32:38;1.42;;;0.50;;